Charlestown, RI

5:37 PM EDT on October 01, 2016 (GMT -0400)
West Beach Quonnie | | Change Station

Elev 35 ft 41.33 °N, 71.71 °W | Updated 1 minute ago

Overcast
Overcast
60.0 °F
Feels Like 60.0 °F
N
8.0
Wind Variable Wind from SW
Gusts 18.0 mph

Today
High -- | Low -- °F
--% Chance of Precip.
Yesterday
High -- | Low -- °F
Precip. -- in
Pressure 30.17 in
Visibility 10.0 miles
Clouds Overcast 1300 ft
Dew Point 58 °F
Humidity 92%
Rainfall in
Snow Depth Not available.
6:44 AM 6:27 PM
New Moon, 1% visible
METAR KWST 012053Z AUTO 03008G15KT 10SM OVC013 17/13 A3017 RMK AO2 SLP215 60000 T01720133 50000 $
Pressure 30.17 in
Visibility 10.0 miles
Clouds Overcast 1300 ft
Dew Point 58 °F
Humidity 92%
Rainfall in
Snow Depth Not available.
6:44 AM 6:27 PM
New Moon, 1% visible
METAR KWST 012053Z AUTO 03008G15KT 10SM OVC013 17/13 A3017 RMK AO2 SLP215 60000 T01720133 50000 $

10-Day Weather Forecast

Almanac

Astronomy

Oct. 01, 2016 Rise Set
Actual Time
Civil Twilight
Nautical Twilight
Astronomical Twilight
Moon
Length of Visible Light
Length of Day
Tomorrow will be .
, % of the Moon is Illuminated

Today's Extremes

State Highs State Lows

Community

WunderPhotos

Upload Photos

1,943,028 photos uploaded!

WunderBlog® & News

Nearby

Air Quality

  Air Quality AQ Index Pollutant
Not available.

Snow Depth

Station Depth Elevation

Earthquake Activity

City Distance Mag. Time & Date
Minimum magnitude displayed is 2.5.

Coastal Water Temperatures

Place Temperature

Stations

Nearby Weather Stations

Station Location Temp. Windchill Dew Point Humidity Wind Precip. Elev Updated Type
                   

Watches & Warnings

There are currently no watches in effect.